aviador You're here:

CYXS Decoded Metar

PRINCE GEORGE in BC, CANADA
Report Time2017-08-18 10:00:00
UTC Time2017-08-18 10:48:20
Flight Rules ifr IFR
Wind200° at 02 kt
W.Decomp.*RWY 19: 2.0 kt HW 0.4 kt LCW
RWY 15: 1.7 kt HW 1.0 kt RCW
RWY 24: 1.0 kt HW 1.7 kt LCW
W.Rank200° ranks 8
Current wind is below 200° avg. (7.0)
Visibility4023 m
Phenomena:Mist
Clouds:Overcast 100 Hf
Ceiling10,000 ft
Temp13°C (ISA +2)
Dew Point13°C (100% RH)
QNH1011 hPa
Density Alt2,841 ft
Elevation2,267 ft
Report Wrong Elevation
Raw Report
CYXS 181000Z AUTO 20002KT 2 1/2SM BR OVC100 13/13 A2986 RMK SLP115
DENSITY ALT 2600FT=

Extra information for CYXS:More info

Metar Taf Metar & Taf Last 4 Metars F.Rules Stats Wind Profile Meteogram Temp Stats Airport Information Weather charts Add Link Nearby VenuesMetar ALERT Operation Metar Decoded Social comments